createdAt,value
2019-05-17T00:02:11.454Z,99.90
2019-05-17T00:05:13.174Z,99.90
2019-05-17T00:08:16.421Z,99.90
2019-05-17T00:11:17.698Z,99.90
2019-05-17T00:14:19.717Z,99.90
2019-05-17T00:17:21.061Z,99.90
2019-05-17T00:20:22.293Z,99.90
2019-05-17T00:23:23.554Z,99.90
2019-05-17T00:26:26.925Z,99.90
2019-05-17T00:29:28.157Z,99.90
2019-05-17T00:32:29.643Z,99.90
2019-05-17T00:35:30.913Z,99.90
2019-05-17T00:38:43.820Z,99.90
2019-05-17T00:41:37.309Z,99.90
2019-05-17T00:44:38.905Z,99.90
2019-05-17T00:47:40.125Z,99.90
2019-05-17T00:50:41.616Z,99.90
2019-05-17T00:53:42.848Z,99.90
2019-05-17T00:56:46.278Z,99.90
2019-05-17T00:59:47.658Z,99.90
2019-05-17T01:06:19.365Z,99.90
2019-05-17T01:09:20.707Z,99.90
2019-05-17T01:12:22.139Z,99.90
2019-05-17T01:15:23.382Z,99.90
2019-05-17T01:18:26.906Z,99.90
2019-05-17T01:21:28.269Z,99.90
2019-05-17T01:24:29.727Z,99.90
2019-05-17T01:27:30.975Z,99.90
2019-05-17T01:30:32.418Z,99.90
2019-05-17T01:33:33.748Z,99.90
2019-05-17T01:36:37.071Z,99.90
2019-05-17T01:39:38.225Z,99.90
2019-05-17T01:42:39.658Z,99.90
2019-05-17T01:45:40.912Z,99.90
2019-05-17T01:48:42.359Z,99.90
2019-05-17T01:51:43.588Z,99.90
2019-05-17T01:54:46.910Z,99.90
2019-05-17T01:57:48.057Z,99.90
2019-05-17T02:00:49.502Z,99.90
2019-05-17T02:03:51.285Z,99.90
2019-05-17T02:06:53.289Z,99.90
2019-05-17T02:09:56.717Z,99.90
2019-05-17T02:12:57.780Z,99.90
2019-05-17T02:15:59.010Z,99.90
2019-05-17T02:19:00.442Z,99.90
2019-05-17T02:22:01.701Z,99.90
2019-05-17T02:25:10.065Z,99.90
2019-05-17T02:28:12.304Z,99.90
2019-05-17T02:31:13.920Z,99.90
2019-05-17T02:34:15.163Z,99.90
2019-05-17T02:37:16.602Z,99.90
2019-05-17T02:40:17.825Z,99.90
2019-05-17T02:43:19.276Z,99.90
2019-05-17T02:46:23.077Z,99.90
2019-05-17T02:49:23.821Z,99.90
2019-05-17T02:52:25.066Z,99.90
2019-05-17T02:55:26.337Z,99.90
2019-05-17T02:58:27.606Z,99.90
2019-05-17T03:01:28.833Z,99.90
2019-05-17T03:04:32.694Z,99.90
2019-05-17T03:07:34.546Z,99.90
2019-05-17T03:10:35.959Z,99.90
2019-05-17T03:13:37.414Z,99.90
2019-05-17T03:16:38.667Z,99.90
2019-05-17T03:19:43.291Z,99.90
2019-05-17T03:22:44.266Z,99.90
2019-05-17T03:25:45.838Z,99.90
2019-05-17T03:32:16.690Z,99.90
2019-05-17T03:35:16.830Z,99.90
2019-05-17T03:38:17.434Z,99.90
2019-05-17T03:41:24.839Z,99.90
2019-05-17T03:44:22.618Z,99.90
2019-05-17T03:47:23.854Z,99.90
2019-05-17T03:50:25.307Z,99.90
2019-05-17T03:53:26.553Z,99.90
2019-05-17T03:56:28.017Z,99.90
2019-05-17T03:59:29.394Z,99.90
2019-05-17T04:02:32.656Z,99.90
2019-05-17T04:05:33.919Z,99.90
2019-05-17T04:08:36.043Z,99.90
2019-05-17T04:15:53.713Z,99.90
2019-05-17T04:18:54.949Z,99.90
2019-05-17T04:21:56.502Z,99.90
2019-05-17T04:24:57.777Z,99.90
2019-05-17T04:28:02.617Z,99.90
2019-05-17T04:31:02.933Z,99.90
2019-05-17T04:34:04.585Z,99.90
2019-05-17T04:37:05.805Z,99.90
2019-05-17T04:40:07.063Z,99.90
2019-05-17T04:43:08.293Z,99.90
2019-05-17T04:46:12.711Z,99.90
2019-05-17T04:49:13.796Z,99.90
2019-05-17T04:52:15.285Z,99.90
2019-05-17T04:55:16.949Z,99.90
2019-05-17T04:58:18.183Z,99.90
2019-05-17T05:01:19.625Z,99.90
2019-05-17T05:04:22.613Z,99.20
2019-05-17T05:07:24.715Z,99.00
2019-05-17T05:10:27.117Z,97.00
2019-05-17T05:13:28.560Z,97.90
2019-05-17T05:16:32.059Z,97.60
2019-05-17T05:19:33.133Z,97.70
2019-05-17T05:22:34.862Z,97.70
2019-05-17T05:25:36.094Z,97.60
2019-05-17T05:28:37.702Z,97.10
2019-05-17T05:31:38.975Z,96.60
2019-05-17T05:34:42.719Z,97.30
2019-05-17T05:37:43.506Z,97.70
2019-05-17T05:40:44.737Z,97.50
2019-05-17T05:43:46.473Z,96.90
2019-05-17T05:46:47.717Z,96.60
2019-05-17T05:49:49.328Z,96.80
2019-05-17T05:52:52.381Z,97.70
2019-05-17T05:55:53.632Z,98.10
2019-05-17T06:02:18.921Z,96.20
2019-05-17T06:05:21.935Z,96.60
2019-05-17T06:08:23.527Z,96.50
2019-05-17T06:11:25.696Z,96.70
2019-05-17T06:18:31.832Z,94.30
2019-05-17T06:21:33.179Z,92.70
2019-05-17T06:24:34.521Z,91.90
2019-05-17T06:27:36.507Z,91.90
2019-05-17T06:30:37.832Z,92.10
2019-05-17T06:33:41.991Z,91.80
2019-05-17T06:36:42.505Z,92.00
2019-05-17T06:39:44.156Z,93.10
2019-05-17T06:42:45.826Z,93.80
2019-05-17T06:45:47.492Z,92.90
2019-05-17T06:48:48.856Z,92.20
2019-05-17T06:51:51.756Z,92.10
2019-05-17T06:54:53.096Z,91.90
2019-05-17T06:57:54.670Z,89.80
2019-05-17T07:00:55.937Z,91.20
2019-05-17T07:04:00.217Z,91.70
2019-05-17T07:07:15.342Z,90.30
2019-05-17T07:10:19.467Z,89.60
2019-05-17T07:13:20.097Z,89.20
2019-05-17T07:16:21.582Z,91.30
2019-05-17T07:19:22.809Z,91.90
2019-05-17T07:22:24.519Z,91.80
2019-05-17T07:25:25.750Z,88.30
2019-05-17T07:28:30.020Z,86.50
2019-05-17T07:31:30.981Z,86.30
2019-05-17T07:34:32.711Z,90.00
2019-05-17T07:37:33.937Z,90.90
2019-05-17T07:40:35.430Z,91.30
2019-05-17T07:43:36.655Z,90.80
2019-05-17T07:46:40.144Z,89.10
2019-05-17T07:49:41.314Z,91.30
2019-05-17T07:52:42.800Z,91.40
2019-05-17T07:55:44.078Z,91.90
2019-05-17T07:58:45.559Z,92.80
2019-05-17T08:01:46.803Z,93.50
2019-05-17T08:04:50.178Z,94.10
2019-05-17T08:07:51.214Z,93.80
2019-05-17T08:10:52.466Z,93.90
2019-05-17T08:13:54.588Z,94.10
2019-05-17T08:16:55.839Z,94.50
2019-05-17T08:19:57.078Z,92.40
2019-05-17T08:22:59.526Z,92.40
2019-05-17T08:26:00.885Z,92.30
2019-05-17T08:29:02.329Z,92.30
2019-05-17T08:32:03.572Z,90.70
2019-05-17T08:35:04.946Z,87.90
2019-05-17T08:38:06.274Z,90.10
2019-05-17T08:41:10.330Z,88.40
2019-05-17T08:44:10.561Z,88.30
2019-05-17T08:47:12.137Z,89.30
2019-05-17T08:50:13.498Z,88.40
2019-05-17T08:53:14.959Z,89.30
2019-05-17T08:56:16.198Z,89.20
2019-05-17T08:59:20.191Z,87.90
2019-05-17T09:02:21.530Z,87.90
2019-05-17T09:05:22.952Z,88.00
2019-05-17T09:08:24.190Z,87.40
2019-05-17T09:11:25.459Z,85.90
2019-05-17T09:14:29.453Z,86.40
2019-05-17T09:17:50.677Z,87.60
2019-05-17T09:20:52.117Z,87.50
2019-05-17T09:23:53.337Z,84.80
2019-05-17T09:26:55.431Z,81.80
2019-05-17T09:29:59.878Z,82.20
2019-05-17T09:33:00.820Z,82.70
2019-05-17T09:36:02.679Z,83.40
2019-05-17T09:39:06.442Z,81.80
2019-05-17T09:42:10.174Z,81.30
2019-05-17T09:45:11.042Z,86.30
2019-05-17T09:48:12.476Z,78.70
2019-05-17T09:51:14.143Z,80.10
2019-05-17T09:54:15.363Z,79.90
2019-05-17T09:57:17.151Z,76.80
2019-05-17T10:00:20.639Z,77.50
2019-05-17T10:03:23.850Z,75.90
2019-05-17T10:06:24.647Z,76.20
2019-05-17T10:09:26.302Z,75.40
2019-05-17T10:12:27.541Z,71.70
2019-05-17T10:15:30.072Z,73.60
2019-05-17T10:18:33.451Z,75.90
2019-05-17T10:21:34.672Z,76.20
2019-05-17T10:24:39.602Z,74.20
2019-05-17T10:27:40.631Z,73.70
2019-05-17T10:30:42.432Z,69.20
2019-05-17T10:33:43.861Z,72.10
2019-05-17T10:36:45.377Z,70.20
2019-05-17T10:39:46.864Z,68.10
2019-05-17T10:42:50.050Z,69.50
2019-05-17T10:45:51.401Z,72.30
2019-05-17T10:48:52.682Z,69.00
2019-05-17T10:51:54.119Z,72.20
2019-05-17T10:54:55.353Z,67.80
2019-05-17T10:57:57.086Z,66.30
2019-05-17T11:01:00.609Z,68.30
2019-05-17T11:04:01.603Z,68.30
2019-05-17T11:07:04.308Z,68.60
2019-05-17T11:10:05.930Z,76.20
2019-05-17T11:13:07.549Z,65.80
2019-05-17T11:42:09.029Z,65.40
2019-05-17T11:45:26.293Z,61.90
2019-05-17T11:48:14.096Z,62.00
2019-05-17T11:51:15.577Z,62.30
2019-05-17T11:54:17.107Z,64.50
2019-05-17T11:57:18.647Z,62.30
2019-05-17T12:00:20.525Z,59.20
2019-05-17T12:03:22.187Z,58.70
2019-05-17T12:06:24.678Z,62.60
2019-05-17T12:09:36.995Z,57.80
2019-05-17T12:12:29.337Z,52.90
2019-05-17T12:15:43.797Z,50.50
2019-05-17T12:18:34.048Z,50.70
2019-05-17T12:21:35.276Z,52.80
2019-05-17T12:24:36.552Z,53.70
2019-05-17T12:27:38.318Z,53.40
2019-05-17T12:30:39.562Z,53.00
2019-05-17T12:33:41.459Z,49.30
2019-05-17T12:36:42.741Z,45.30
2019-05-17T12:39:44.581Z,47.60
2019-05-17T12:42:46.591Z,47.90
2019-05-17T12:46:00.262Z,46.50
2019-05-17T12:48:53.706Z,47.60
2019-05-17T12:51:55.235Z,48.00
2019-05-17T12:54:56.826Z,48.70
2019-05-17T12:57:58.279Z,53.00
2019-05-17T13:00:59.709Z,56.50
2019-05-17T13:04:01.299Z,56.80
2019-05-17T13:07:02.902Z,57.90
2019-05-17T13:10:06.953Z,54.50
2019-05-17T13:13:09.667Z,52.90
2019-05-17T13:16:18.114Z,51.50
2019-05-17T13:19:15.108Z,47.20
2019-05-17T13:22:17.082Z,48.00
2019-05-17T13:25:18.339Z,46.60
2019-05-17T13:28:19.797Z,44.00
2019-05-17T13:31:21.705Z,42.60
2019-05-17T13:34:23.765Z,43.40
2019-05-17T13:37:25.672Z,44.60
2019-05-17T13:40:28.373Z,46.80
2019-05-17T13:43:31.886Z,47.40
2019-05-17T13:46:34.322Z,49.30
2019-05-17T13:49:36.205Z,51.50
2019-05-17T13:52:39.217Z,47.40
2019-05-17T13:55:40.799Z,47.60
2019-05-17T13:58:43.258Z,49.00
2019-05-17T14:01:45.404Z,48.90
2019-05-17T14:04:47.262Z,48.20
2019-05-17T14:07:49.247Z,52.10
2019-05-17T14:10:52.641Z,50.80
2019-05-17T14:13:54.243Z,54.50
2019-05-17T14:16:58.088Z,55.40
2019-05-17T14:20:00.037Z,56.70
2019-05-17T14:23:02.268Z,56.80
2019-05-17T14:26:05.803Z,58.40
2019-05-17T14:29:10.884Z,58.20
2019-05-17T14:32:13.470Z,56.80
2019-05-17T14:35:15.838Z,57.20
2019-05-17T14:42:33.309Z,53.90
2019-05-17T14:45:34.590Z,52.30
2019-05-17T14:48:36.344Z,50.40
2019-05-17T14:51:38.270Z,48.50
2019-05-17T14:54:40.413Z,48.20
2019-05-17T14:57:43.241Z,46.90
2019-05-17T15:00:46.629Z,47.00
2019-05-17T15:03:49.096Z,50.20
2019-05-17T15:06:51.538Z,47.70
2019-05-17T15:09:53.943Z,43.50
2019-05-17T15:12:57.131Z,40.80
2019-05-17T15:16:06.214Z,38.50
2019-05-17T15:19:16.954Z,36.60
2019-05-17T15:22:25.027Z,36.40
2019-05-17T15:25:34.706Z,33.40
2019-05-17T15:28:41.550Z,32.50
2019-05-17T15:31:53.186Z,31.30
2019-05-17T15:35:01.424Z,32.60
2019-05-17T15:38:10.956Z,34.20
2019-05-17T15:41:37.399Z,34.40
2019-05-17T15:44:46.142Z,31.60
2019-05-17T15:48:02.969Z,30.60
2019-05-17T15:54:33.828Z,34.70
2019-05-17T15:57:39.466Z,31.90
2019-05-17T16:00:51.143Z,34.50
2019-05-17T16:04:01.233Z,36.00
2019-05-17T16:07:18.161Z,35.70
2019-05-17T16:10:25.429Z,38.60
2019-05-17T16:13:30.331Z,40.20
2019-05-17T16:16:39.215Z,38.20
2019-05-17T16:19:52.810Z,39.50
2019-05-17T16:22:57.802Z,40.40
2019-05-17T16:26:15.019Z,41.90
2019-05-17T16:29:22.196Z,43.10
2019-05-17T16:32:31.823Z,44.80
2019-05-17T16:35:37.006Z,44.20
2019-05-17T16:38:40.767Z,44.00
2019-05-17T16:41:46.700Z,45.10
2019-05-17T16:44:56.977Z,44.00
2019-05-17T16:48:05.699Z,47.40
2019-05-17T16:51:13.220Z,46.10
2019-05-17T16:54:23.919Z,45.40
2019-05-17T16:57:33.066Z,46.30
2019-05-17T17:00:38.803Z,49.80
2019-05-17T17:03:50.241Z,51.00
2019-05-17T17:06:57.473Z,53.50
2019-05-17T17:10:09.898Z,53.60
2019-05-17T17:13:32.421Z,55.70
2019-05-17T17:16:25.752Z,58.30
2019-05-17T17:19:31.321Z,58.60
2019-05-17T17:22:35.797Z,59.00
2019-05-17T17:25:38.415Z,60.90
2019-05-17T17:28:40.998Z,63.10
2019-05-17T17:31:44.826Z,64.80
2019-05-17T17:34:50.297Z,66.60
2019-05-17T17:37:54.295Z,68.10
2019-05-17T17:40:58.737Z,69.30
2019-05-17T17:44:01.906Z,71.90
2019-05-17T17:47:05.304Z,72.10
2019-05-17T17:50:11.161Z,72.10
2019-05-17T17:53:14.839Z,73.30
2019-05-17T17:56:17.831Z,75.20
2019-05-17T17:59:20.682Z,75.20
2019-05-17T18:02:25.225Z,75.90
2019-05-17T18:05:27.640Z,77.00
2019-05-17T18:08:30.426Z,77.40
2019-05-17T18:11:37.211Z,77.30
2019-05-17T18:14:42.480Z,78.90
2019-05-17T18:17:45.667Z,79.00
2019-05-17T18:20:48.284Z,78.90
2019-05-17T18:23:51.936Z,80.20
2019-05-17T18:26:54.880Z,80.80
2019-05-17T18:29:56.094Z,82.80
2019-05-17T18:32:58.234Z,83.90
2019-05-17T18:35:59.621Z,83.40
2019-05-17T18:39:02.019Z,83.80
2019-05-17T18:42:05.074Z,85.20
2019-05-17T18:45:07.743Z,84.10
2019-05-17T18:48:09.725Z,84.00
2019-05-17T18:51:11.715Z,83.90
2019-05-17T18:54:13.441Z,83.80
2019-05-17T18:57:15.527Z,84.70
2019-05-17T19:00:18.733Z,82.60
2019-05-17T19:03:21.508Z,83.80
2019-05-17T19:06:23.904Z,83.90
2019-05-17T19:09:27.617Z,84.80
2019-05-17T19:12:32.314Z,84.60
2019-05-17T19:15:36.234Z,85.10
2019-05-17T19:18:38.311Z,84.50
2019-05-17T19:21:39.999Z,86.00
2019-05-17T19:24:41.896Z,85.80
2019-05-17T19:27:46.701Z,86.40
2019-05-17T19:30:49.561Z,87.50
2019-05-17T19:33:51.595Z,88.20
2019-05-17T19:36:53.187Z,88.70
2019-05-17T19:39:54.712Z,90.00
2019-05-17T19:42:57.640Z,90.30
2019-05-17T19:45:59.588Z,90.70
2019-05-17T19:49:05.872Z,91.10
2019-05-17T19:52:07.484Z,91.60
2019-05-17T19:55:10.917Z,92.30
2019-05-17T19:58:13.293Z,92.60
2019-05-17T20:01:15.736Z,92.80
2019-05-17T20:04:18.351Z,93.20
2019-05-17T20:07:20.791Z,93.60
2019-05-17T20:10:24.386Z,93.60
2019-05-17T20:13:26.934Z,94.10
2019-05-17T20:16:28.550Z,94.30
2019-05-17T20:19:30.593Z,95.00
2019-05-17T20:22:32.781Z,95.30
2019-05-17T20:25:35.837Z,95.60
2019-05-17T20:28:37.748Z,95.70
2019-05-17T20:31:39.758Z,96.10
2019-05-17T20:34:41.235Z,96.40
2019-05-17T20:37:43.276Z,96.70
2019-05-17T20:40:44.819Z,97.30
2019-05-17T20:43:46.196Z,97.20
2019-05-17T20:46:47.622Z,96.80
2019-05-17T20:49:48.897Z,97.00
2019-05-17T20:52:50.955Z,97.20
2019-05-17T20:55:52.184Z,97.10
2019-05-17T20:58:55.662Z,97.30
2019-05-17T21:01:57.164Z,97.60
2019-05-17T21:04:58.726Z,98.00
2019-05-17T21:08:00.587Z,98.20
2019-05-17T21:11:02.043Z,98.60
2019-05-17T21:14:03.436Z,99.20
2019-05-17T21:17:05.893Z,99.00
2019-05-17T21:20:07.211Z,99.20
2019-05-17T21:23:08.658Z,98.90
2019-05-17T21:26:10.257Z,98.90
2019-05-17T21:29:11.899Z,98.60
2019-05-17T21:32:13.150Z,98.60
2019-05-17T21:35:14.778Z,99.00
2019-05-17T21:38:16.179Z,99.60
2019-05-17T21:41:17.432Z,99.40
2019-05-17T21:44:19.623Z,99.20
2019-05-17T21:47:21.081Z,98.90
2019-05-17T21:50:23.179Z,99.30
2019-05-17T21:53:25.247Z,99.90
2019-05-17T21:56:26.584Z,99.90
2019-05-17T21:59:30.863Z,99.90
2019-05-17T22:02:32.215Z,99.90
2019-05-17T22:05:33.469Z,99.60
2019-05-17T22:08:36.248Z,99.40
2019-05-17T22:11:39.625Z,99.40
2019-05-17T22:14:41.163Z,99.80
2019-05-17T22:17:42.584Z,99.90
2019-05-17T22:20:44.022Z,99.90
2019-05-17T22:23:45.281Z,99.60
2019-05-17T22:26:46.959Z,99.90
2019-05-17T22:29:48.193Z,99.70
2019-05-17T22:32:49.682Z,99.90
2019-05-17T22:35:50.913Z,99.90
2019-05-17T22:38:52.374Z,99.90
2019-05-17T22:41:53.625Z,99.90
2019-05-17T22:44:55.434Z,99.90
2019-05-17T22:47:56.693Z,99.90
2019-05-17T22:50:59.008Z,99.90
2019-05-17T22:54:00.244Z,99.90
2019-05-17T22:57:01.741Z,99.90
2019-05-17T23:00:06.618Z,99.90
2019-05-17T23:03:08.039Z,99.90
2019-05-17T23:06:09.284Z,99.90
2019-05-17T23:09:10.746Z,99.90
2019-05-17T23:12:11.965Z,99.90
2019-05-17T23:15:13.417Z,99.90
2019-05-17T23:18:14.666Z,99.90
2019-05-17T23:21:15.945Z,99.90
2019-05-17T23:24:17.172Z,99.90
2019-05-17T23:27:18.626Z,99.90
2019-05-17T23:30:19.869Z,99.90
2019-05-17T23:33:21.218Z,99.90
2019-05-17T23:36:22.488Z,99.90
2019-05-17T23:39:24.462Z,99.90
2019-05-17T23:42:25.681Z,99.90
2019-05-17T23:45:27.158Z,99.90
2019-05-17T23:48:28.387Z,99.90
2019-05-17T23:51:29.751Z,99.90
2019-05-17T23:54:30.993Z,99.90
2019-05-17T23:57:32.417Z,99.90
